sensor_id;sensor_type;location;lat;lon;timestamp;P1;durP1;ratioP1;P2;durP2;ratioP2
42884;SDS011;28534;48.100;11.584;2023-03-01T00:04:38;4.32;;;3.30;;
42884;SDS011;28534;48.100;11.584;2023-03-01T00:09:40;4.30;;;3.90;;
42884;SDS011;28534;48.100;11.584;2023-03-01T00:14:43;5.45;;;3.58;;
42884;SDS011;28534;48.100;11.584;2023-03-01T00:19:45;3.80;;;3.30;;
42884;SDS011;28534;48.100;11.584;2023-03-01T00:24:47;4.10;;;3.42;;
42884;SDS011;28534;48.100;11.584;2023-03-01T00:29:50;3.78;;;3.42;;
42884;SDS011;28534;48.100;11.584;2023-03-01T00:34:53;3.70;;;3.17;;
42884;SDS011;28534;48.100;11.584;2023-03-01T00:39:55;3.95;;;3.40;;
42884;SDS011;28534;48.100;11.584;2023-03-01T00:44:58;4.10;;;3.47;;
42884;SDS011;28534;48.100;11.584;2023-03-01T00:50:00;3.30;;;3.00;;
42884;SDS011;28534;48.100;11.584;2023-03-01T00:55:01;3.50;;;3.20;;
42884;SDS011;28534;48.100;11.584;2023-03-01T01:00:05;3.70;;;3.40;;
42884;SDS011;28534;48.100;11.584;2023-03-01T01:05:09;3.55;;;3.25;;
42884;SDS011;28534;48.100;11.584;2023-03-01T01:10:11;3.22;;;2.92;;
42884;SDS011;28534;48.100;11.584;2023-03-01T01:15:18;3.33;;;3.03;;
42884;SDS011;28534;48.100;11.584;2023-03-01T01:20:20;3.50;;;3.20;;
42884;SDS011;28534;48.100;11.584;2023-03-01T01:25:21;3.85;;;3.25;;
42884;SDS011;28534;48.100;11.584;2023-03-01T01:30:26;4.38;;;3.20;;
42884;SDS011;28534;48.100;11.584;2023-03-01T01:35:28;3.50;;;3.20;;
42884;SDS011;28534;48.100;11.584;2023-03-01T01:40:29;3.30;;;2.85;;
42884;SDS011;28534;48.100;11.584;2023-03-01T01:45:33;3.28;;;2.97;;
42884;SDS011;28534;48.100;11.584;2023-03-01T01:50:36;3.28;;;2.97;;
42884;SDS011;28534;48.100;11.584;2023-03-01T01:55:41;3.53;;;3.20;;
42884;SDS011;28534;48.100;11.584;2023-03-01T02:00:47;3.20;;;2.90;;
42884;SDS011;28534;48.100;11.584;2023-03-01T02:05:50;3.53;;;3.22;;
42884;SDS011;28534;48.100;11.584;2023-03-01T02:10:56;3.63;;;3.30;;
42884;SDS011;28534;48.100;11.584;2023-03-01T02:16:03;3.50;;;3.10;;
42884;SDS011;28534;48.100;11.584;2023-03-01T02:21:08;3.40;;;3.08;;
42884;SDS011;28534;48.100;11.584;2023-03-01T02:26:25;3.50;;;3.00;;
42884;SDS011;28534;48.100;11.584;2023-03-01T02:31:33;3.45;;;3.00;;
42884;SDS011;28534;48.100;11.584;2023-03-01T02:36:44;4.40;;;3.30;;
42884;SDS011;28534;48.100;11.584;2023-03-01T02:41:49;3.35;;;3.05;;
42884;SDS011;28534;48.100;11.584;2023-03-01T02:46:55;3.63;;;3.03;;
42884;SDS011;28534;48.100;11.584;2023-03-01T02:52:04;3.40;;;3.08;;
42884;SDS011;28534;48.100;11.584;2023-03-01T02:57:16;3.33;;;3.03;;
42884;SDS011;28534;48.100;11.584;2023-03-01T03:02:21;3.25;;;2.95;;
42884;SDS011;28534;48.100;11.584;2023-03-01T03:07:36;3.17;;;2.88;;
42884;SDS011;28534;48.100;11.584;2023-03-01T03:12:40;3.33;;;3.00;;
42884;SDS011;28534;48.100;11.584;2023-03-01T03:17:43;3.20;;;2.90;;
42884;SDS011;28534;48.100;11.584;2023-03-01T03:22:45;2.90;;;2.60;;
42884;SDS011;28534;48.100;11.584;2023-03-01T03:27:48;3.30;;;2.50;;
42884;SDS011;28534;48.100;11.584;2023-03-01T03:32:58;2.83;;;2.63;;
42884;SDS011;28534;48.100;11.584;2023-03-01T03:38:01;2.72;;;2.53;;
42884;SDS011;28534;48.100;11.584;2023-03-01T03:43:07;2.72;;;2.53;;
42884;SDS011;28534;48.100;11.584;2023-03-01T03:48:11;2.60;;;2.40;;
42884;SDS011;28534;48.100;11.584;2023-03-01T03:53:13;2.95;;;2.65;;
42884;SDS011;28534;48.100;11.584;2023-03-01T03:58:15;2.90;;;2.60;;
42884;SDS011;28534;48.100;11.584;2023-03-01T04:03:20;2.97;;;2.70;;
42884;SDS011;28534;48.100;11.584;2023-03-01T04:08:23;2.35;;;2.15;;
42884;SDS011;28534;48.100;11.584;2023-03-01T04:13:26;3.10;;;2.80;;
42884;SDS011;28534;48.100;11.584;2023-03-01T04:18:30;2.45;;;2.25;;
42884;SDS011;28534;48.100;11.584;2023-03-01T04:23:32;2.78;;;2.58;;
42884;SDS011;28534;48.100;11.584;2023-03-01T04:28:36;2.72;;;2.53;;
42884;SDS011;28534;48.100;11.584;2023-03-01T04:33:41;2.60;;;2.28;;
42884;SDS011;28534;48.100;11.584;2023-03-01T04:38:44;3.38;;;2.40;;
42884;SDS011;28534;48.100;11.584;2023-03-01T04:43:47;2.55;;;2.35;;
42884;SDS011;28534;48.100;11.584;2023-03-01T04:48:50;2.67;;;2.45;;
42884;SDS011;28534;48.100;11.584;2023-03-01T04:53:52;3.97;;;2.75;;
42884;SDS011;28534;48.100;11.584;2023-03-01T04:58:54;3.00;;;2.80;;
42884;SDS011;28534;48.100;11.584;2023-03-01T05:03:57;3.42;;;2.80;;
42884;SDS011;28534;48.100;11.584;2023-03-01T05:09:02;2.80;;;2.58;;
42884;SDS011;28534;48.100;11.584;2023-03-01T05:14:05;3.45;;;2.80;;
42884;SDS011;28534;48.100;11.584;2023-03-01T05:19:09;3.63;;;2.75;;
42884;SDS011;28534;48.100;11.584;2023-03-01T05:24:15;3.10;;;2.65;;
42884;SDS011;28534;48.100;11.584;2023-03-01T05:29:17;3.05;;;2.60;;
42884;SDS011;28534;48.100;11.584;2023-03-01T05:34:27;4.72;;;2.90;;
42884;SDS011;28534;48.100;11.584;2023-03-01T05:39:30;7.68;;;3.00;;
42884;SDS011;28534;48.100;11.584;2023-03-01T05:44:32;6.72;;;3.03;;
42884;SDS011;28534;48.100;11.584;2023-03-01T05:49:35;11.05;;;3.53;;
42884;SDS011;28534;48.100;11.584;2023-03-01T05:54:37;12.30;;;3.60;;
42884;SDS011;28534;48.100;11.584;2023-03-01T05:59:39;8.70;;;3.70;;
42884;SDS011;28534;48.100;11.584;2023-03-01T06:04:42;10.70;;;3.92;;
42884;SDS011;28534;48.100;11.584;2023-03-01T06:09:44;9.48;;;4.90;;
42884;SDS011;28534;48.100;11.584;2023-03-01T06:14:46;9.52;;;4.43;;
42884;SDS011;28534;48.100;11.584;2023-03-01T06:19:49;17.05;;;5.60;;
42884;SDS011;28534;48.100;11.584;2023-03-01T06:24:51;15.52;;;5.32;;
42884;SDS011;28534;48.100;11.584;2023-03-01T06:29:53;13.75;;;5.15;;
42884;SDS011;28534;48.100;11.584;2023-03-01T06:34:56;13.98;;;4.93;;
42884;SDS011;28534;48.100;11.584;2023-03-01T06:39:58;13.02;;;5.43;;
42884;SDS011;28534;48.100;11.584;2023-03-01T06:45:04;12.07;;;5.00;;
42884;SDS011;28534;48.100;11.584;2023-03-01T06:50:09;12.52;;;5.65;;
42884;SDS011;28534;48.100;11.584;2023-03-01T06:55:11;12.25;;;5.13;;
42884;SDS011;28534;48.100;11.584;2023-03-01T07:00:14;10.85;;;6.50;;
42884;SDS011;28534;48.100;11.584;2023-03-01T07:05:18;9.32;;;5.60;;
42884;SDS011;28534;48.100;11.584;2023-03-01T07:10:19;9.05;;;5.60;;
42884;SDS011;28534;48.100;11.584;2023-03-01T07:15:21;9.35;;;5.20;;
42884;SDS011;28534;48.100;11.584;2023-03-01T07:20:24;11.77;;;4.85;;
42884;SDS011;28534;48.100;11.584;2023-03-01T07:25:26;8.40;;;5.30;;
42884;SDS011;28534;48.100;11.584;2023-03-01T07:30:28;13.52;;;5.00;;
42884;SDS011;28534;48.100;11.584;2023-03-01T07:35:31;7.95;;;4.75;;
42884;SDS011;28534;48.100;11.584;2023-03-01T07:40:33;9.25;;;4.88;;
42884;SDS011;28534;48.100;11.584;2023-03-01T07:45:35;7.55;;;4.28;;
42884;SDS011;28534;48.100;11.584;2023-03-01T07:50:38;9.85;;;5.00;;
42884;SDS011;28534;48.100;11.584;2023-03-01T07:55:40;11.73;;;5.03;;
42884;SDS011;28534;48.100;11.584;2023-03-01T08:00:41;8.77;;;4.43;;
42884;SDS011;28534;48.100;11.584;2023-03-01T08:05:44;8.50;;;4.80;;
42884;SDS011;28534;48.100;11.584;2023-03-01T08:10:46;7.20;;;4.47;;
42884;SDS011;28534;48.100;11.584;2023-03-01T08:15:48;7.78;;;4.47;;
42884;SDS011;28534;48.100;11.584;2023-03-01T08:20:51;9.43;;;4.70;;
42884;SDS011;28534;48.100;11.584;2023-03-01T08:25:53;7.97;;;4.88;;
42884;SDS011;28534;48.100;11.584;2023-03-01T08:30:54;8.15;;;4.38;;
42884;SDS011;28534;48.100;11.584;2023-03-01T08:36:04;9.05;;;4.20;;
42884;SDS011;28534;48.100;11.584;2023-03-01T08:41:07;10.52;;;4.20;;
42884;SDS011;28534;48.100;11.584;2023-03-01T08:46:08;7.85;;;4.45;;
42884;SDS011;28534;48.100;11.584;2023-03-01T08:51:13;6.35;;;4.18;;
42884;SDS011;28534;48.100;11.584;2023-03-01T08:56:16;8.52;;;4.22;;
42884;SDS011;28534;48.100;11.584;2023-03-01T09:01:18;5.53;;;3.92;;
42884;SDS011;28534;48.100;11.584;2023-03-01T09:06:21;8.68;;;3.75;;
42884;SDS011;28534;48.100;11.584;2023-03-01T09:11:23;7.90;;;4.15;;
42884;SDS011;28534;48.100;11.584;2023-03-01T09:16:25;4.65;;;3.72;;
42884;SDS011;28534;48.100;11.584;2023-03-01T09:21:31;4.90;;;3.78;;
42884;SDS011;28534;48.100;11.584;2023-03-01T09:26:33;5.38;;;3.85;;
42884;SDS011;28534;48.100;11.584;2023-03-01T09:31:34;7.00;;;4.00;;
42884;SDS011;28534;48.100;11.584;2023-03-01T09:36:38;8.65;;;3.97;;
42884;SDS011;28534;48.100;11.584;2023-03-01T09:41:44;8.50;;;4.20;;
42884;SDS011;28534;48.100;11.584;2023-03-01T09:46:48;7.07;;;3.90;;
42884;SDS011;28534;48.100;11.584;2023-03-01T09:51:57;7.15;;;3.95;;
42884;SDS011;28534;48.100;11.584;2023-03-01T09:57:11;5.95;;;3.72;;
42884;SDS011;28534;48.100;11.584;2023-03-01T10:02:23;5.40;;;3.95;;
42884;SDS011;28534;48.100;11.584;2023-03-01T10:07:35;6.72;;;3.70;;
42884;SDS011;28534;48.100;11.584;2023-03-01T10:12:43;8.43;;;3.97;;
42884;SDS011;28534;48.100;11.584;2023-03-01T10:17:46;6.07;;;3.90;;
42884;SDS011;28534;48.100;11.584;2023-03-01T10:22:54;10.07;;;3.70;;
42884;SDS011;28534;48.100;11.584;2023-03-01T10:27:59;6.20;;;3.53;;
42884;SDS011;28534;48.100;11.584;2023-03-01T10:33:03;6.90;;;3.97;;
42884;SDS011;28534;48.100;11.584;2023-03-01T10:38:18;6.18;;;3.60;;
42884;SDS011;28534;48.100;11.584;2023-03-01T10:43:21;8.85;;;3.92;;
42884;SDS011;28534;48.100;11.584;2023-03-01T10:48:24;6.63;;;3.60;;
42884;SDS011;28534;48.100;11.584;2023-03-01T10:53:30;7.70;;;3.45;;
42884;SDS011;28534;48.100;11.584;2023-03-01T10:58:35;5.97;;;3.58;;
42884;SDS011;28534;48.100;11.584;2023-03-01T11:03:38;6.57;;;3.88;;
42884;SDS011;28534;48.100;11.584;2023-03-01T11:08:42;6.05;;;3.40;;
42884;SDS011;28534;48.100;11.584;2023-03-01T11:13:48;7.90;;;3.60;;
42884;SDS011;28534;48.100;11.584;2023-03-01T11:18:56;8.63;;;3.45;;
42884;SDS011;28534;48.100;11.584;2023-03-01T11:24:01;6.75;;;3.42;;
42884;SDS011;28534;48.100;11.584;2023-03-01T11:29:06;4.90;;;3.55;;
42884;SDS011;28534;48.100;11.584;2023-03-01T11:34:17;8.63;;;4.05;;
42884;SDS011;28534;48.100;11.584;2023-03-01T11:39:27;4.97;;;3.58;;
42884;SDS011;28534;48.100;11.584;2023-03-01T11:44:33;6.25;;;3.35;;
42884;SDS011;28534;48.100;11.584;2023-03-01T11:49:41;6.43;;;3.28;;
42884;SDS011;28534;48.100;11.584;2023-03-01T11:55:16;6.45;;;3.78;;
42884;SDS011;28534;48.100;11.584;2023-03-01T12:00:31;5.93;;;3.30;;
42884;SDS011;28534;48.100;11.584;2023-03-01T12:05:57;5.60;;;3.83;;
42884;SDS011;28534;48.100;11.584;2023-03-01T12:11:27;5.47;;;3.30;;
42884;SDS011;28534;48.100;11.584;2023-03-01T12:16:50;4.68;;;3.20;;
42884;SDS011;28534;48.100;11.584;2023-03-01T12:22:07;5.97;;;3.10;;
42884;SDS011;28534;48.100;11.584;2023-03-01T12:27:21;5.63;;;3.67;;
42884;SDS011;28534;48.100;11.584;2023-03-01T12:32:38;4.65;;;3.40;;
42884;SDS011;28534;48.100;11.584;2023-03-01T12:37:48;5.40;;;3.67;;
42884;SDS011;28534;48.100;11.584;2023-03-01T12:43:06;5.65;;;3.40;;
42884;SDS011;28534;48.100;11.584;2023-03-01T12:48:24;7.03;;;3.22;;
42884;SDS011;28534;48.100;11.584;2023-03-01T12:53:34;7.43;;;3.70;;
42884;SDS011;28534;48.100;11.584;2023-03-01T12:58:41;6.68;;;4.10;;
42884;SDS011;28534;48.100;11.584;2023-03-01T13:03:57;7.68;;;3.60;;
42884;SDS011;28534;48.100;11.584;2023-03-01T13:09:14;4.22;;;3.20;;
42884;SDS011;28534;48.100;11.584;2023-03-01T13:14:37;5.25;;;3.22;;
42884;SDS011;28534;48.100;11.584;2023-03-01T13:19:55;5.18;;;3.47;;
42884;SDS011;28534;48.100;11.584;2023-03-01T13:25:01;4.40;;;3.25;;
42884;SDS011;28534;48.100;11.584;2023-03-01T13:35:43;5.50;;;3.45;;
42884;SDS011;28534;48.100;11.584;2023-03-01T13:40:59;4.93;;;3.20;;
42884;SDS011;28534;48.100;11.584;2023-03-01T13:46:07;6.53;;;3.40;;
42884;SDS011;28534;48.100;11.584;2023-03-01T13:51:12;6.45;;;3.33;;
42884;SDS011;28534;48.100;11.584;2023-03-01T13:56:15;7.55;;;3.30;;
42884;SDS011;28534;48.100;11.584;2023-03-01T14:01:22;5.57;;;3.28;;
42884;SDS011;28534;48.100;11.584;2023-03-01T14:06:26;4.35;;;3.30;;
42884;SDS011;28534;48.100;11.584;2023-03-01T14:11:35;6.90;;;3.33;;
42884;SDS011;28534;48.100;11.584;2023-03-01T14:17:00;5.28;;;3.17;;
42884;SDS011;28534;48.100;11.584;2023-03-01T14:22:26;5.38;;;3.35;;
42884;SDS011;28534;48.100;11.584;2023-03-01T14:27:30;4.82;;;3.30;;
42884;SDS011;28534;48.100;11.584;2023-03-01T14:32:37;4.65;;;3.28;;
42884;SDS011;28534;48.100;11.584;2023-03-01T14:37:39;8.18;;;3.40;;
42884;SDS011;28534;48.100;11.584;2023-03-01T14:42:41;3.75;;;3.25;;
42884;SDS011;28534;48.100;11.584;2023-03-01T14:47:44;4.97;;;3.17;;
42884;SDS011;28534;48.100;11.584;2023-03-01T14:52:47;3.90;;;3.00;;
42884;SDS011;28534;48.100;11.584;2023-03-01T14:57:51;3.75;;;2.70;;
42884;SDS011;28534;48.100;11.584;2023-03-01T15:02:55;5.70;;;3.10;;
42884;SDS011;28534;48.100;11.584;2023-03-01T15:07:59;4.30;;;3.20;;
42884;SDS011;28534;48.100;11.584;2023-03-01T15:13:09;3.88;;;3.00;;
42884;SDS011;28534;48.100;11.584;2023-03-01T15:18:17;4.70;;;2.97;;
42884;SDS011;28534;48.100;11.584;2023-03-01T15:23:21;4.20;;;2.78;;
42884;SDS011;28534;48.100;11.584;2023-03-01T15:28:25;4.57;;;3.28;;
42884;SDS011;28534;48.100;11.584;2023-03-01T15:33:32;6.00;;;3.22;;
42884;SDS011;28534;48.100;11.584;2023-03-01T15:38:35;5.18;;;2.90;;
42884;SDS011;28534;48.100;11.584;2023-03-01T15:43:52;4.57;;;3.00;;
42884;SDS011;28534;48.100;11.584;2023-03-01T15:48:57;10.57;;;3.47;;
42884;SDS011;28534;48.100;11.584;2023-03-01T15:54:02;15.73;;;3.47;;
42884;SDS011;28534;48.100;11.584;2023-03-01T15:59:08;10.18;;;3.80;;
42884;SDS011;28534;48.100;11.584;2023-03-01T16:04:13;7.80;;;3.78;;
42884;SDS011;28534;48.100;11.584;2023-03-01T16:09:21;16.10;;;4.13;;
42884;SDS011;28534;48.100;11.584;2023-03-01T16:14:24;8.45;;;3.38;;
42884;SDS011;28534;48.100;11.584;2023-03-01T16:19:27;117.45;;;70.22;;
42884;SDS011;28534;48.100;11.584;2023-03-01T16:24:28;335.08;;;214.82;;
42884;SDS011;28534;48.100;11.584;2023-03-01T16:29:32;292.77;;;188.95;;
42884;SDS011;28534;48.100;11.584;2023-03-01T16:34:35;268.40;;;178.55;;
42884;SDS011;28534;48.100;11.584;2023-03-01T16:39:37;255.05;;;163.02;;
42884;SDS011;28534;48.100;11.584;2023-03-01T16:44:39;204.07;;;129.55;;
42884;SDS011;28534;48.100;11.584;2023-03-01T16:49:42;190.80;;;121.88;;
42884;SDS011;28534;48.100;11.584;2023-03-01T16:54:44;199.20;;;125.30;;
42884;SDS011;28534;48.100;11.584;2023-03-01T16:59:46;186.02;;;117.05;;
42884;SDS011;28534;48.100;11.584;2023-03-01T17:04:52;193.35;;;121.30;;
42884;SDS011;28534;48.100;11.584;2023-03-01T17:09:55;179.02;;;114.35;;
42884;SDS011;28534;48.100;11.584;2023-03-01T17:14:56;185.02;;;112.53;;
42884;SDS011;28534;48.100;11.584;2023-03-01T17:19:59;140.50;;;87.47;;
42884;SDS011;28534;48.100;11.584;2023-03-01T17:25:01;124.47;;;79.15;;
42884;SDS011;28534;48.100;11.584;2023-03-01T17:30:04;123.60;;;75.30;;
42884;SDS011;28534;48.100;11.584;2023-03-01T17:35:12;128.32;;;75.47;;
42884;SDS011;28534;48.100;11.584;2023-03-01T17:40:13;114.15;;;68.15;;
42884;SDS011;28534;48.100;11.584;2023-03-01T17:45:15;113.53;;;69.78;;
42884;SDS011;28534;48.100;11.584;2023-03-01T17:50:18;108.80;;;65.85;;
42884;SDS011;28534;48.100;11.584;2023-03-01T17:55:20;99.15;;;57.83;;
42884;SDS011;28534;48.100;11.584;2023-03-01T18:00:22;81.85;;;49.03;;
42884;SDS011;28534;48.100;11.584;2023-03-01T18:05:27;63.75;;;39.50;;
42884;SDS011;28534;48.100;11.584;2023-03-01T18:10:31;66.93;;;38.65;;
42884;SDS011;28534;48.100;11.584;2023-03-01T18:15:35;60.95;;;34.53;;
42884;SDS011;28534;48.100;11.584;2023-03-01T18:20:38;52.35;;;32.20;;
42884;SDS011;28534;48.100;11.584;2023-03-01T18:25:40;51.42;;;31.45;;
42884;SDS011;28534;48.100;11.584;2023-03-01T18:30:42;49.22;;;30.67;;
42884;SDS011;28534;48.100;11.584;2023-03-01T18:35:45;51.33;;;31.38;;
42884;SDS011;28534;48.100;11.584;2023-03-01T18:40:47;48.95;;;30.40;;
42884;SDS011;28534;48.100;11.584;2023-03-01T18:45:54;49.60;;;29.77;;
42884;SDS011;28534;48.100;11.584;2023-03-01T18:51:05;48.33;;;30.25;;
42884;SDS011;28534;48.100;11.584;2023-03-01T18:56:08;47.30;;;29.38;;
42884;SDS011;28534;48.100;11.584;2023-03-01T19:01:11;46.35;;;27.83;;
42884;SDS011;28534;48.100;11.584;2023-03-01T19:06:16;43.95;;;28.17;;
42884;SDS011;28534;48.100;11.584;2023-03-01T19:11:19;48.38;;;28.77;;
42884;SDS011;28534;48.100;11.584;2023-03-01T19:16:21;42.78;;;27.67;;
42884;SDS011;28534;48.100;11.584;2023-03-01T19:21:28;43.92;;;27.52;;
42884;SDS011;28534;48.100;11.584;2023-03-01T19:26:31;42.13;;;26.95;;
42884;SDS011;28534;48.100;11.584;2023-03-01T19:31:33;41.20;;;26.33;;
42884;SDS011;28534;48.100;11.584;2023-03-01T19:36:36;40.42;;;26.35;;
42884;SDS011;28534;48.100;11.584;2023-03-01T19:41:39;38.38;;;25.40;;
42884;SDS011;28534;48.100;11.584;2023-03-01T19:46:41;39.33;;;25.88;;
42884;SDS011;28534;48.100;11.584;2023-03-01T19:51:44;40.60;;;25.38;;
42884;SDS011;28534;48.100;11.584;2023-03-01T19:56:46;41.08;;;24.92;;
42884;SDS011;28534;48.100;11.584;2023-03-01T20:01:49;36.08;;;23.77;;
42884;SDS011;28534;48.100;11.584;2023-03-01T20:06:52;37.78;;;24.77;;
42884;SDS011;28534;48.100;11.584;2023-03-01T20:11:54;38.08;;;23.33;;
42884;SDS011;28534;48.100;11.584;2023-03-01T20:16:56;37.20;;;23.13;;
42884;SDS011;28534;48.100;11.584;2023-03-01T20:21:59;36.13;;;23.67;;
42884;SDS011;28534;48.100;11.584;2023-03-01T20:27:02;33.47;;;22.02;;
42884;SDS011;28534;48.100;11.584;2023-03-01T20:32:04;34.25;;;22.15;;
42884;SDS011;28534;48.100;11.584;2023-03-01T20:37:07;32.13;;;21.80;;
42884;SDS011;28534;48.100;11.584;2023-03-01T20:42:09;31.48;;;21.40;;
42884;SDS011;28534;48.100;11.584;2023-03-01T20:47:11;35.58;;;20.60;;
42884;SDS011;28534;48.100;11.584;2023-03-01T20:52:14;30.40;;;20.80;;
42884;SDS011;28534;48.100;11.584;2023-03-01T20:57:16;31.23;;;20.75;;
42884;SDS011;28534;48.100;11.584;2023-03-01T21:02:18;29.45;;;21.15;;
42884;SDS011;28534;48.100;11.584;2023-03-01T21:07:21;30.35;;;20.35;;
42884;SDS011;28534;48.100;11.584;2023-03-01T21:12:23;28.08;;;20.05;;
42884;SDS011;28534;48.100;11.584;2023-03-01T21:17:24;29.02;;;20.15;;
42884;SDS011;28534;48.100;11.584;2023-03-01T21:22:28;27.20;;;19.58;;
42884;SDS011;28534;48.100;11.584;2023-03-01T21:27:34;31.10;;;20.25;;
42884;SDS011;28534;48.100;11.584;2023-03-01T21:32:36;29.88;;;19.90;;
42884;SDS011;28534;48.100;11.584;2023-03-01T21:37:39;30.27;;;20.13;;
42884;SDS011;28534;48.100;11.584;2023-03-01T21:42:41;28.42;;;19.25;;
42884;SDS011;28534;48.100;11.584;2023-03-01T21:47:43;27.92;;;19.52;;
42884;SDS011;28534;48.100;11.584;2023-03-01T21:52:46;27.83;;;18.30;;
42884;SDS011;28534;48.100;11.584;2023-03-01T21:57:48;26.27;;;18.00;;
42884;SDS011;28534;48.100;11.584;2023-03-01T22:02:49;26.95;;;17.88;;
42884;SDS011;28534;48.100;11.584;2023-03-01T22:07:58;25.42;;;18.02;;
42884;SDS011;28534;48.100;11.584;2023-03-01T22:13:00;26.48;;;17.90;;
42884;SDS011;28534;48.100;11.584;2023-03-01T22:18:01;25.63;;;17.80;;
42884;SDS011;28534;48.100;11.584;2023-03-01T22:23:05;26.55;;;18.42;;
42884;SDS011;28534;48.100;11.584;2023-03-01T22:28:07;23.48;;;17.00;;
42884;SDS011;28534;48.100;11.584;2023-03-01T22:33:09;26.05;;;17.67;;
42884;SDS011;28534;48.100;11.584;2023-03-01T22:38:12;26.55;;;18.00;;
42884;SDS011;28534;48.100;11.584;2023-03-01T22:43:14;23.83;;;17.60;;
42884;SDS011;28534;48.100;11.584;2023-03-01T22:48:16;24.92;;;16.88;;
42884;SDS011;28534;48.100;11.584;2023-03-01T22:53:19;22.70;;;16.45;;
42884;SDS011;28534;48.100;11.584;2023-03-01T22:58:21;21.88;;;16.27;;
42884;SDS011;28534;48.100;11.584;2023-03-01T23:03:22;23.80;;;16.77;;
42884;SDS011;28534;48.100;11.584;2023-03-01T23:08:25;22.42;;;16.45;;
42884;SDS011;28534;48.100;11.584;2023-03-01T23:13:27;21.58;;;16.05;;
42884;SDS011;28534;48.100;11.584;2023-03-01T23:18:29;23.27;;;16.05;;
42884;SDS011;28534;48.100;11.584;2023-03-01T23:23:32;21.50;;;16.08;;
42884;SDS011;28534;48.100;11.584;2023-03-01T23:28:35;22.98;;;15.82;;
42884;SDS011;28534;48.100;11.584;2023-03-01T23:33:39;21.20;;;15.18;;
42884;SDS011;28534;48.100;11.584;2023-03-01T23:38:45;20.35;;;15.48;;
42884;SDS011;28534;48.100;11.584;2023-03-01T23:43:48;22.27;;;15.68;;
42884;SDS011;28534;48.100;11.584;2023-03-01T23:48:51;22.75;;;15.93;;
42884;SDS011;28534;48.100;11.584;2023-03-01T23:53:55;22.35;;;16.20;;
42884;SDS011;28534;48.100;11.584;2023-03-01T23:59:00;22.45;;;15.88;;
